X  Close Metar Aviation Weather Data     YPAD Adelaide International Airport
Temperature
22°C Temperature
2°C Dewpoint
27% Humidity



Wind
32 KM/H
20 MPH
9 M/S
17 KTS



30°
NNE
Current Conditions

Light Thunderstorm, Rain Light Thunderstorm, Rain
Pressure 1005.92 (hPa) - 29.7 (inHg)
Visibility 6.2 (mile) - 10 (km)
Airport
Airport-code YPAD

Location: Adelaide International Airport
Distance: 20 (km)

Metar:
YPAD 161630Z 03017KT 9999 -TSRA FEW080CB BKN140 22/02 Q1006 RETS

Time: 17-09-2021 2:00 am ACST